createdAt,value
2018-08-28T00:00:43.293Z,61.80
2018-08-28T00:03:11.575Z,61.75
2018-08-28T00:05:39.790Z,62.24
2018-08-28T00:08:08.016Z,61.50
2018-08-28T00:10:36.322Z,62.49
2018-08-28T00:13:04.950Z,62.45
2018-08-28T00:15:33.279Z,61.81
2018-08-28T00:18:01.514Z,62.39
2018-08-28T00:20:29.765Z,62.62
2018-08-28T00:22:58.194Z,61.68
2018-08-28T00:25:26.503Z,61.63
2018-08-28T00:27:54.808Z,61.96
2018-08-28T00:30:23.083Z,62.00
2018-08-28T00:32:51.443Z,62.89
2018-08-28T00:35:19.755Z,62.66
2018-08-28T00:37:48.053Z,63.16
2018-08-28T00:40:16.367Z,62.00
2018-08-28T00:42:44.598Z,63.01
2018-08-28T00:45:12.874Z,62.57
2018-08-28T00:47:41.146Z,63.06
2018-08-28T00:50:09.457Z,63.42
2018-08-28T00:52:37.734Z,63.59
2018-08-28T00:55:06.053Z,63.81
2018-08-28T00:57:34.326Z,62.96
2018-08-28T01:00:02.582Z,63.05
2018-08-28T01:02:30.917Z,64.14
2018-08-28T01:04:59.228Z,63.14
2018-08-28T01:07:27.506Z,63.34
2018-08-28T01:09:55.803Z,63.80
2018-08-28T01:12:24.096Z,64.63
2018-08-28T01:14:52.328Z,64.11
2018-08-28T01:17:20.611Z,64.30
2018-08-28T01:19:48.875Z,64.42
2018-08-28T01:22:17.146Z,64.81
2018-08-28T01:24:45.422Z,64.32
2018-08-28T01:27:13.727Z,64.96
2018-08-28T01:29:41.973Z,64.54
2018-08-28T01:32:10.247Z,65.39
2018-08-28T01:34:38.590Z,65.48
2018-08-28T01:37:06.980Z,64.64
2018-08-28T01:39:35.272Z,64.67
2018-08-28T01:42:03.558Z,65.57
2018-08-28T01:44:31.885Z,65.97
2018-08-28T01:47:00.266Z,65.09
2018-08-28T01:49:28.482Z,65.97
2018-08-28T01:51:58.163Z,65.69
2018-08-28T01:54:26.487Z,65.33
2018-08-28T01:56:54.746Z,65.65
2018-08-28T01:59:23.035Z,66.03
2018-08-28T02:01:51.318Z,65.41
2018-08-28T02:04:19.606Z,66.30
2018-08-28T02:06:47.847Z,65.69
2018-08-28T02:09:16.097Z,66.08
2018-08-28T02:11:44.333Z,66.52
2018-08-28T02:14:12.594Z,66.54
2018-08-28T02:16:40.902Z,66.19
2018-08-28T02:19:09.158Z,67.28
2018-08-28T02:21:37.493Z,67.05
2018-08-28T02:24:06.143Z,67.29
2018-08-28T02:26:34.558Z,67.52
2018-08-28T02:29:02.881Z,66.43
2018-08-28T02:31:31.223Z,66.96
2018-08-28T02:33:59.459Z,67.57
2018-08-28T02:36:27.738Z,67.23
2018-08-28T02:38:56.033Z,66.66
2018-08-28T02:41:24.284Z,66.91
2018-08-28T02:43:52.539Z,67.16
2018-08-28T02:46:20.769Z,67.35
2018-08-28T02:48:49.009Z,66.83
2018-08-28T02:51:17.327Z,66.23
2018-08-28T02:53:45.655Z,66.28
2018-08-28T02:56:13.900Z,66.41
2018-08-28T02:58:42.167Z,66.96
2018-08-28T03:01:10.452Z,67.23
2018-08-28T03:03:38.712Z,66.72
2018-08-28T03:06:06.989Z,66.51
2018-08-28T03:08:35.199Z,66.61
2018-08-28T03:11:03.474Z,67.38
2018-08-28T03:13:31.746Z,66.52
2018-08-28T03:16:00.061Z,66.97
2018-08-28T03:18:28.374Z,66.77
2018-08-28T03:20:56.735Z,66.50
2018-08-28T03:23:24.977Z,66.44
2018-08-28T03:25:53.269Z,66.61
2018-08-28T03:28:21.586Z,67.57
2018-08-28T03:30:49.898Z,67.54
2018-08-28T03:33:18.251Z,66.91
2018-08-28T03:35:46.500Z,67.06
2018-08-28T03:38:15.010Z,67.11
2018-08-28T03:40:43.254Z,67.51
2018-08-28T03:43:11.504Z,67.16
2018-08-28T03:45:39.742Z,67.02
2018-08-28T03:48:08.088Z,67.70
2018-08-28T03:50:36.393Z,66.68
2018-08-28T03:53:05.173Z,67.88
2018-08-28T03:55:33.460Z,67.66
2018-08-28T03:58:01.723Z,67.66
2018-08-28T04:00:30.018Z,67.53
2018-08-28T04:02:58.319Z,67.55
2018-08-28T04:05:26.577Z,67.24
2018-08-28T04:07:54.855Z,67.14
2018-08-28T04:10:23.114Z,68.40
2018-08-28T04:12:51.398Z,68.04
2018-08-28T04:15:19.726Z,67.47
2018-08-28T04:17:50.018Z,68.18
2018-08-28T04:20:19.593Z,67.17
2018-08-28T04:22:48.065Z,67.71
2018-08-28T04:25:17.183Z,68.09
2018-08-28T04:27:45.981Z,68.29
2018-08-28T04:30:14.314Z,68.35
2018-08-28T04:34:50.845Z,67.52
2018-08-28T04:37:20.590Z,67.12
2018-08-28T04:39:48.878Z,68.14
2018-08-28T04:42:17.118Z,68.12
2018-08-28T04:44:45.446Z,68.03
2018-08-28T04:47:13.825Z,67.70
2018-08-28T04:49:42.124Z,68.24
2018-08-28T04:52:10.544Z,67.34
2018-08-28T04:54:38.967Z,68.22
2018-08-28T04:57:07.285Z,68.21
2018-08-28T04:59:35.522Z,68.10
2018-08-28T05:02:03.915Z,67.36
2018-08-28T05:04:32.270Z,67.84
2018-08-28T05:07:00.658Z,67.31
2018-08-28T05:09:28.910Z,67.27
2018-08-28T05:11:57.299Z,67.89
2018-08-28T05:14:25.629Z,68.04
2018-08-28T05:16:53.960Z,67.75
2018-08-28T05:19:22.315Z,67.76
2018-08-28T05:21:50.481Z,68.62
2018-08-28T05:24:18.754Z,68.58
2018-08-28T05:26:47.037Z,68.24
2018-08-28T05:29:15.666Z,68.31
2018-08-28T05:31:44.037Z,68.63
2018-08-28T05:34:12.289Z,69.11
2018-08-28T05:36:40.654Z,68.85
2018-08-28T05:39:08.988Z,68.86
2018-08-28T05:41:37.458Z,69.28
2018-08-28T05:44:05.782Z,68.98
2018-08-28T05:46:34.067Z,69.56
2018-08-28T05:49:02.998Z,69.47
2018-08-28T05:51:31.251Z,69.38
2018-08-28T05:53:59.483Z,70.72
2018-08-28T05:56:27.851Z,69.95
2018-08-28T05:58:56.125Z,70.85
2018-08-28T06:01:24.383Z,70.84
2018-08-28T06:03:52.662Z,69.95
2018-08-28T06:06:20.920Z,70.86
2018-08-28T06:08:49.272Z,71.05
2018-08-28T06:11:17.731Z,70.89
2018-08-28T06:13:46.106Z,70.87
2018-08-28T06:16:14.357Z,71.08
2018-08-28T06:18:42.708Z,71.28
2018-08-28T06:21:11.171Z,71.58
2018-08-28T06:23:39.507Z,71.24
2018-08-28T06:26:07.865Z,70.77
2018-08-28T06:28:36.112Z,70.54
2018-08-28T06:31:04.494Z,71.53
2018-08-28T06:33:32.810Z,71.70
2018-08-28T06:36:01.182Z,71.49
2018-08-28T06:38:29.534Z,70.90
2018-08-28T06:40:57.809Z,70.81
2018-08-28T06:43:26.097Z,71.42
2018-08-28T06:45:54.612Z,71.36
2018-08-28T06:48:22.889Z,70.77
2018-08-28T06:50:51.233Z,70.33
2018-08-28T06:53:19.606Z,70.18
2018-08-28T06:55:47.877Z,70.79
2018-08-28T06:58:16.129Z,70.95
2018-08-28T07:00:44.365Z,70.65
2018-08-28T07:03:12.637Z,70.73
2018-08-28T07:05:40.956Z,70.10
2018-08-28T07:08:09.263Z,70.70
2018-08-28T07:10:37.553Z,71.16
2018-08-28T07:13:05.914Z,71.07
2018-08-28T07:15:34.247Z,70.94
2018-08-28T07:18:02.618Z,69.87
2018-08-28T07:20:30.871Z,70.91
2018-08-28T07:22:59.147Z,70.41
2018-08-28T07:25:27.407Z,70.80
2018-08-28T07:27:55.656Z,70.50
2018-08-28T07:30:24.070Z,69.37
2018-08-28T07:32:52.395Z,69.60
2018-08-28T07:35:20.702Z,69.38
2018-08-28T07:37:48.986Z,69.20
2018-08-28T07:40:17.275Z,68.41
2018-08-28T07:42:45.609Z,67.91
2018-08-28T07:45:13.875Z,68.35
2018-08-28T07:47:42.149Z,68.38
2018-08-28T07:50:10.374Z,67.23
2018-08-28T07:52:38.744Z,66.95
2018-08-28T07:55:07.059Z,67.83
2018-08-28T07:57:35.423Z,67.05
2018-08-28T08:00:03.747Z,67.37
2018-08-28T08:02:32.053Z,67.42
2018-08-28T08:05:00.337Z,67.38
2018-08-28T08:07:28.666Z,66.70
2018-08-28T08:09:56.997Z,67.98
2018-08-28T08:12:25.273Z,67.20
2018-08-28T08:14:53.943Z,66.83
2018-08-28T08:17:22.280Z,66.40
2018-08-28T08:19:50.495Z,66.24
2018-08-28T08:22:18.902Z,66.01
2018-08-28T08:24:47.117Z,64.70
2018-08-28T08:27:15.413Z,64.72
2018-08-28T08:29:43.694Z,64.62
2018-08-28T08:32:12.005Z,65.29
2018-08-28T08:34:40.321Z,64.55
2018-08-28T08:37:08.699Z,64.18
2018-08-28T08:39:37.018Z,63.91
2018-08-28T08:42:05.352Z,63.51
2018-08-28T08:44:33.597Z,64.40
2018-08-28T08:47:01.862Z,63.87
2018-08-28T08:49:30.150Z,61.85
2018-08-28T08:51:58.493Z,62.40
2018-08-28T08:54:26.833Z,63.15
2018-08-28T08:56:55.958Z,63.47
2018-08-28T08:59:24.239Z,63.03
2018-08-28T09:01:52.470Z,62.17
2018-08-28T09:04:20.882Z,62.20
2018-08-28T09:06:49.087Z,60.65
2018-08-28T09:09:17.355Z,60.08
2018-08-28T09:11:45.597Z,59.64
2018-08-28T09:14:13.906Z,60.15
2018-08-28T09:16:42.221Z,59.48
2018-08-28T09:19:10.713Z,60.36
2018-08-28T09:21:38.964Z,60.04
2018-08-28T09:24:07.201Z,60.55
2018-08-28T09:26:35.492Z,59.54
2018-08-28T09:29:03.857Z,58.49
2018-08-28T09:31:32.173Z,58.70
2018-08-28T09:34:00.479Z,58.76
2018-08-28T09:36:28.856Z,57.87
2018-08-28T09:38:57.154Z,57.67
2018-08-28T09:41:25.419Z,57.44
2018-08-28T09:43:53.715Z,57.69
2018-08-28T09:46:21.934Z,56.62
2018-08-28T09:48:50.231Z,57.47
2018-08-28T09:51:18.546Z,57.51
2018-08-28T09:53:46.876Z,56.98
2018-08-28T09:56:15.182Z,56.53
2018-08-28T09:58:43.476Z,57.71
2018-08-28T10:01:16.987Z,56.88
2018-08-28T10:03:45.336Z,55.90
2018-08-28T10:06:13.641Z,56.13
2018-08-28T10:08:41.912Z,54.76
2018-08-28T10:11:10.534Z,54.24
2018-08-28T10:13:38.789Z,53.85
2018-08-28T10:16:07.091Z,54.30
2018-08-28T10:18:35.447Z,54.20
2018-08-28T10:21:03.712Z,53.06
2018-08-28T10:23:32.001Z,51.72
2018-08-28T10:26:00.309Z,52.04
2018-08-28T10:28:28.578Z,51.12
2018-08-28T10:30:56.837Z,51.14
2018-08-28T10:33:25.121Z,50.80
2018-08-28T10:35:53.401Z,51.84
2018-08-28T10:38:21.631Z,50.79
2018-08-28T10:40:49.970Z,51.89
2018-08-28T10:43:18.235Z,51.32
2018-08-28T10:45:46.570Z,49.80
2018-08-28T10:48:14.901Z,51.61
2018-08-28T10:50:43.166Z,49.84
2018-08-28T10:53:11.411Z,50.62
2018-08-28T10:55:39.749Z,49.95
2018-08-28T10:58:08.041Z,49.25
2018-08-28T11:00:36.340Z,50.73
2018-08-28T11:03:04.702Z,50.55
2018-08-28T11:05:32.918Z,51.14
2018-08-28T11:08:01.187Z,49.62
2018-08-28T11:10:29.538Z,48.46
2018-08-28T11:12:57.985Z,49.92
2018-08-28T11:15:26.294Z,49.93
2018-08-28T11:17:54.630Z,49.93
2018-08-28T11:20:22.916Z,49.98
2018-08-28T11:22:51.309Z,50.35
2018-08-28T11:25:19.626Z,51.11
2018-08-28T11:27:47.995Z,50.97
2018-08-28T11:30:16.310Z,50.46
2018-08-28T11:32:44.938Z,50.63
2018-08-28T11:35:13.217Z,48.49
2018-08-28T11:37:41.491Z,48.11
2018-08-28T11:40:09.791Z,48.95
2018-08-28T11:42:38.041Z,48.46
2018-08-28T11:45:06.719Z,48.49
2018-08-28T11:47:34.958Z,48.30
2018-08-28T11:50:03.231Z,48.47
2018-08-28T11:52:31.665Z,48.43
2018-08-28T11:54:59.908Z,47.04
2018-08-28T11:57:28.130Z,46.32
2018-08-28T11:59:56.395Z,44.54
2018-08-28T12:02:24.691Z,44.78
2018-08-28T12:04:53.168Z,45.64
2018-08-28T12:07:21.876Z,45.51
2018-08-28T12:09:50.115Z,44.84
2018-08-28T12:12:18.394Z,43.24
2018-08-28T12:14:46.681Z,42.69
2018-08-28T12:17:15.225Z,42.08
2018-08-28T12:19:43.519Z,42.67
2018-08-28T12:22:11.733Z,42.13
2018-08-28T12:24:39.967Z,42.33
2018-08-28T12:27:08.226Z,41.51
2018-08-28T12:29:36.531Z,42.14
2018-08-28T12:32:04.774Z,41.02
2018-08-28T12:34:32.998Z,40.17
2018-08-28T12:37:01.266Z,39.70
2018-08-28T12:39:29.467Z,39.89
2018-08-28T12:41:57.674Z,39.08
2018-08-28T12:44:25.970Z,39.16
2018-08-28T12:46:54.698Z,39.39
2018-08-28T12:49:22.920Z,38.91
2018-08-28T12:51:51.160Z,37.90
2018-08-28T12:54:19.510Z,36.90
2018-08-28T12:56:47.927Z,36.46
2018-08-28T12:59:16.230Z,36.63
2018-08-28T13:01:44.502Z,37.05
2018-08-28T13:04:12.753Z,36.90
2018-08-28T13:06:41.013Z,36.62
2018-08-28T13:09:09.295Z,35.97
2018-08-28T13:11:37.599Z,35.17
2018-08-28T13:14:06.031Z,35.52
2018-08-28T13:16:34.398Z,35.33
2018-08-28T13:19:02.822Z,34.66
2018-08-28T13:21:31.041Z,35.78
2018-08-28T13:23:59.349Z,36.34
2018-08-28T13:26:27.697Z,35.72
2018-08-28T13:28:55.907Z,35.21
2018-08-28T13:31:24.273Z,34.94
2018-08-28T13:33:52.542Z,34.75
2018-08-28T13:36:20.865Z,33.46
2018-08-28T13:38:49.117Z,33.40
2018-08-28T13:41:17.470Z,33.32
2018-08-28T13:43:45.730Z,32.40
2018-08-28T13:46:13.974Z,33.11
2018-08-28T13:48:42.245Z,32.59
2018-08-28T13:51:10.559Z,32.60
2018-08-28T13:53:38.907Z,31.32
2018-08-28T13:56:07.109Z,31.16
2018-08-28T13:58:35.513Z,32.18
2018-08-28T14:01:03.891Z,31.88
2018-08-28T14:03:32.205Z,31.93
2018-08-28T14:06:00.539Z,32.04
2018-08-28T14:08:28.805Z,32.51
2018-08-28T14:10:57.048Z,31.97
2018-08-28T14:13:25.449Z,31.93
2018-08-28T14:15:53.628Z,31.70
2018-08-28T14:18:21.978Z,31.83
2018-08-28T14:20:50.254Z,31.30
2018-08-28T14:23:18.523Z,31.88
2018-08-28T14:25:46.793Z,31.70
2018-08-28T14:28:15.102Z,31.50
2018-08-28T14:30:43.363Z,31.68
2018-08-28T14:33:11.635Z,32.36
2018-08-28T14:35:40.021Z,31.17
2018-08-28T14:38:08.277Z,32.26
2018-08-28T14:40:36.557Z,33.16
2018-08-28T14:43:04.842Z,33.79
2018-08-28T14:45:33.175Z,33.58
2018-08-28T14:48:01.533Z,34.36
2018-08-28T14:50:29.915Z,34.44
2018-08-28T14:52:58.143Z,34.76
2018-08-28T14:55:26.460Z,34.93
2018-08-28T14:57:54.767Z,35.77
2018-08-28T15:00:23.027Z,36.58
2018-08-28T15:02:51.351Z,36.62
2018-08-28T15:05:19.638Z,36.97
2018-08-28T15:07:47.914Z,37.42
2018-08-28T15:10:16.221Z,37.30
2018-08-28T15:12:44.506Z,36.88
2018-08-28T15:15:12.769Z,37.66
2018-08-28T15:17:41.056Z,37.75
2018-08-28T15:20:09.413Z,37.70
2018-08-28T15:22:38.041Z,37.90
2018-08-28T15:25:06.863Z,38.15
2018-08-28T15:27:35.165Z,37.35
2018-08-28T15:30:03.447Z,37.31
2018-08-28T15:32:31.769Z,38.13
2018-08-28T15:35:00.018Z,42.07
2018-08-28T15:37:28.433Z,42.03
2018-08-28T15:39:56.704Z,41.40
2018-08-28T15:42:24.950Z,39.56
2018-08-28T15:44:53.397Z,39.01
2018-08-28T15:47:21.725Z,39.67
2018-08-28T15:49:50.042Z,38.72
2018-08-28T15:52:18.303Z,39.63
2018-08-28T15:54:46.544Z,39.34
2018-08-28T15:57:14.877Z,39.49
2018-08-28T15:59:43.150Z,38.78
2018-08-28T16:02:11.648Z,37.85
2018-08-28T16:04:39.859Z,38.30
2018-08-28T16:07:08.063Z,37.71
2018-08-28T16:09:36.425Z,38.37
2018-08-28T16:12:04.762Z,37.30
2018-08-28T16:14:33.038Z,36.69
2018-08-28T16:17:01.324Z,36.68
2018-08-28T16:19:29.661Z,37.87
2018-08-28T16:21:59.541Z,38.02
2018-08-28T16:24:27.838Z,39.14
2018-08-28T16:26:56.509Z,39.03
2018-08-28T16:29:24.786Z,39.72
2018-08-28T16:31:53.198Z,37.85
2018-08-28T16:34:21.491Z,37.12
2018-08-28T16:36:49.754Z,37.28
2018-08-28T16:39:18.111Z,37.99
2018-08-28T16:41:46.512Z,37.99
2018-08-28T16:44:14.855Z,38.42
2018-08-28T16:46:43.145Z,38.23
2018-08-28T16:49:11.415Z,38.78
2018-08-28T16:51:39.650Z,39.35
2018-08-28T16:54:07.931Z,39.55
2018-08-28T16:56:36.174Z,39.67
2018-08-28T16:59:04.759Z,40.55
2018-08-28T17:01:33.157Z,39.83
2018-08-28T17:04:07.977Z,39.45
2018-08-28T17:06:36.276Z,40.50
2018-08-28T17:09:05.225Z,40.66
2018-08-28T17:11:33.570Z,40.91
2018-08-28T17:14:01.844Z,40.37
2018-08-28T17:16:30.207Z,40.88
2018-08-28T17:18:58.581Z,40.61
2018-08-28T17:21:26.906Z,41.35
2018-08-28T17:23:55.198Z,42.82
2018-08-28T17:26:23.474Z,42.88
2018-08-28T17:28:51.736Z,43.06
2018-08-28T17:31:20.010Z,43.16
2018-08-28T17:33:48.315Z,43.13
2018-08-28T17:36:16.638Z,42.28
2018-08-28T17:38:44.942Z,42.40
2018-08-28T17:41:13.257Z,43.22
2018-08-28T17:43:41.528Z,43.56
2018-08-28T17:46:10.166Z,43.35
2018-08-28T17:48:38.406Z,43.07
2018-08-28T17:51:06.734Z,42.78
2018-08-28T17:53:35.042Z,43.92
2018-08-28T17:56:03.323Z,43.49
2018-08-28T17:58:31.656Z,44.23
2018-08-28T18:00:59.896Z,44.74
2018-08-28T18:03:28.210Z,45.02
2018-08-28T18:05:56.814Z,46.16
2018-08-28T18:08:25.078Z,47.38
2018-08-28T18:10:53.383Z,48.08
2018-08-28T18:13:21.642Z,47.90
2018-08-28T18:15:49.952Z,48.38
2018-08-28T18:18:18.258Z,48.86
2018-08-28T18:20:46.638Z,49.09
2018-08-28T18:23:14.886Z,49.27
2018-08-28T18:25:43.188Z,49.21
2018-08-28T18:28:11.557Z,49.44
2018-08-28T18:30:39.794Z,49.17
2018-08-28T18:33:08.134Z,49.95
2018-08-28T18:35:36.442Z,49.40
2018-08-28T18:38:04.806Z,50.08
2018-08-28T18:40:33.150Z,50.34
2018-08-28T18:43:01.558Z,49.97
2018-08-28T18:45:30.066Z,49.98
2018-08-28T18:47:58.414Z,50.79
2018-08-28T18:50:26.639Z,50.94
2018-08-28T18:52:54.871Z,50.85
2018-08-28T18:55:23.235Z,50.55
2018-08-28T18:57:52.657Z,50.97
2018-08-28T19:00:21.378Z,50.53
2018-08-28T19:02:51.030Z,51.03
2018-08-28T19:05:19.583Z,50.88
2018-08-28T19:07:51.152Z,50.78
2018-08-28T19:10:21.531Z,51.73
2018-08-28T19:12:50.897Z,52.01
2018-08-28T19:15:19.246Z,51.33
2018-08-28T19:17:47.618Z,52.43
2018-08-28T19:20:15.917Z,51.55
2018-08-28T19:22:44.282Z,51.75
2018-08-28T19:25:12.603Z,51.94
2018-08-28T19:27:40.991Z,51.87
2018-08-28T19:30:09.433Z,52.64
2018-08-28T19:32:37.774Z,52.47
2018-08-28T19:35:06.310Z,52.89
2018-08-28T19:37:34.656Z,53.27
2018-08-28T19:40:02.898Z,52.23
2018-08-28T19:42:31.201Z,53.05
2018-08-28T19:44:59.498Z,53.28
2018-08-28T19:47:27.779Z,52.46
2018-08-28T19:49:56.148Z,53.19
2018-08-28T19:52:24.326Z,52.98
2018-08-28T19:54:52.615Z,54.05
2018-08-28T19:57:20.909Z,53.13
2018-08-28T19:59:49.247Z,52.86
2018-08-28T20:02:17.494Z,53.55
2018-08-28T20:04:45.803Z,53.86
2018-08-28T20:07:14.090Z,54.05
2018-08-28T20:09:42.370Z,53.43
2018-08-28T20:12:10.626Z,53.59
2018-08-28T20:14:38.939Z,54.21
2018-08-28T20:17:07.170Z,54.33
2018-08-28T20:19:35.447Z,53.82
2018-08-28T20:22:03.698Z,54.82
2018-08-28T20:24:31.944Z,54.43
2018-08-28T20:27:00.258Z,53.92
2018-08-28T20:29:28.429Z,54.37
2018-08-28T20:31:56.727Z,54.65
2018-08-28T20:34:24.967Z,54.25
2018-08-28T20:36:53.320Z,54.05
2018-08-28T20:39:21.589Z,53.87
2018-08-28T20:41:49.879Z,54.83
2018-08-28T20:44:18.092Z,54.83
2018-08-28T20:46:46.321Z,54.54
2018-08-28T20:49:14.609Z,54.03
2018-08-28T20:51:42.881Z,54.24
2018-08-28T20:54:11.193Z,54.13
2018-08-28T20:56:39.574Z,54.20
2018-08-28T20:59:08.077Z,54.67
2018-08-28T21:01:36.328Z,54.59
2018-08-28T21:04:04.583Z,55.27
2018-08-28T21:06:32.825Z,55.16
2018-08-28T21:09:01.089Z,54.47
2018-08-28T21:11:29.410Z,54.61
2018-08-28T21:13:57.714Z,54.54
2018-08-28T21:16:25.989Z,55.53
2018-08-28T21:18:54.277Z,54.71
2018-08-28T21:21:22.551Z,55.67
2018-08-28T21:23:50.841Z,54.60
2018-08-28T21:26:19.180Z,55.92
2018-08-28T21:28:47.448Z,54.96
2018-08-28T21:31:15.764Z,55.21
2018-08-28T21:33:44.020Z,55.25
2018-08-28T21:36:12.318Z,55.23
2018-08-28T21:38:40.701Z,55.92
2018-08-28T21:41:08.997Z,56.26
2018-08-28T21:43:37.304Z,55.11
2018-08-28T21:46:05.528Z,56.17
2018-08-28T21:48:33.798Z,56.53
2018-08-28T21:51:02.066Z,56.24
2018-08-28T21:53:30.490Z,55.21
2018-08-28T21:55:58.733Z,55.48
2018-08-28T21:58:26.992Z,55.64
2018-08-28T22:01:00.688Z,56.19
2018-08-28T22:03:28.930Z,56.29
2018-08-28T22:05:57.202Z,56.40
2018-08-28T22:08:25.631Z,56.68
2018-08-28T22:10:54.032Z,56.91
2018-08-28T22:13:22.469Z,57.17
2018-08-28T22:15:50.716Z,55.89
2018-08-28T22:18:19.031Z,56.04
2018-08-28T22:20:52.602Z,56.06
2018-08-28T22:23:20.907Z,56.45
2018-08-28T22:25:49.388Z,56.90
2018-08-28T22:28:17.638Z,56.43
2018-08-28T22:30:45.886Z,57.13
2018-08-28T22:33:14.193Z,57.48
2018-08-28T22:35:42.923Z,56.60
2018-08-28T22:38:11.202Z,56.95
2018-08-28T22:40:39.627Z,57.57
2018-08-28T22:43:08.859Z,57.23
2018-08-28T22:45:37.334Z,56.82
2018-08-28T22:48:06.032Z,57.11
2018-08-28T22:50:34.702Z,57.70
2018-08-28T22:53:03.021Z,56.94
2018-08-28T22:55:31.421Z,57.61
2018-08-28T22:57:59.702Z,57.10
2018-08-28T23:00:27.945Z,57.39
2018-08-28T23:02:56.263Z,56.96
2018-08-28T23:05:24.526Z,56.87
2018-08-28T23:07:52.857Z,57.49
2018-08-28T23:10:21.447Z,56.99
2018-08-28T23:12:51.176Z,57.95
2018-08-28T23:15:19.526Z,58.12
2018-08-28T23:17:47.771Z,57.77
2018-08-28T23:20:16.160Z,57.89
2018-08-28T23:22:44.445Z,58.23
2018-08-28T23:25:12.744Z,57.46
2018-08-28T23:27:41.053Z,58.18
2018-08-28T23:30:09.328Z,57.89
2018-08-28T23:32:37.607Z,57.44
2018-08-28T23:35:05.983Z,58.39
2018-08-28T23:37:34.301Z,58.72
2018-08-28T23:40:02.698Z,58.47
2018-08-28T23:42:30.938Z,58.77
2018-08-28T23:44:59.231Z,57.71
2018-08-28T23:47:27.493Z,58.80
2018-08-28T23:49:55.749Z,58.67
2018-08-28T23:52:24.026Z,58.88
2018-08-28T23:54:52.291Z,58.61
2018-08-28T23:57:20.654Z,59.07
2018-08-28T23:59:48.961Z,59.33
